createdAt,value
2023-02-11T00:00:19.994Z,77.63
2023-02-11T00:02:47.992Z,77.92
2023-02-11T00:05:15.078Z,77.32
2023-02-11T00:07:41.664Z,77.36
2023-02-11T00:10:08.527Z,77.08
2023-02-11T00:12:36.294Z,77.48
2023-02-11T00:15:03.065Z,77.46
2023-02-11T00:17:29.390Z,77.21
2023-02-11T00:19:55.740Z,77.77
2023-02-11T00:22:22.024Z,76.99
2023-02-11T00:24:48.462Z,77.22
2023-02-11T00:27:14.845Z,77.15
2023-02-11T00:29:41.149Z,77.45
2023-02-11T00:32:07.642Z,77.71
2023-02-11T00:34:35.003Z,78.08
2023-02-11T00:37:01.531Z,77.51
2023-02-11T00:39:28.157Z,77.95
2023-02-11T00:41:54.496Z,77.63
2023-02-11T00:44:20.836Z,77.59
2023-02-11T00:46:47.387Z,77.95
2023-02-11T00:49:14.094Z,77.51
2023-02-11T00:51:40.404Z,77.31
2023-02-11T00:54:07.339Z,77.59
2023-02-11T00:56:33.683Z,77.61
2023-02-11T00:59:00.062Z,77.47
2023-02-11T01:01:26.462Z,77.65
2023-02-11T01:03:52.855Z,77.33
2023-02-11T01:06:19.308Z,77.94
2023-02-11T01:08:45.660Z,77.89
2023-02-11T01:11:15.468Z,77.48
2023-02-11T01:13:41.800Z,77.71
2023-02-11T01:16:09.427Z,78.02
2023-02-11T01:18:36.703Z,77.76
2023-02-11T01:21:03.679Z,78.15
2023-02-11T01:23:30.020Z,77.98
2023-02-11T01:25:57.150Z,78.27
2023-02-11T01:28:26.434Z,78.04
2023-02-11T01:30:53.394Z,78.28
2023-02-11T01:33:20.694Z,78.77
2023-02-11T01:35:47.216Z,78.37
2023-02-11T01:38:21.783Z,78.93
2023-02-11T01:40:52.467Z,79.25
2023-02-11T01:43:19.375Z,79.45
2023-02-11T01:45:45.620Z,79.08
2023-02-11T01:48:14.750Z,79.30
2023-02-11T01:50:42.900Z,79.88
2023-02-11T01:53:10.414Z,79.02
2023-02-11T01:55:36.596Z,79.23
2023-02-11T01:58:04.540Z,79.39
2023-02-11T02:00:35.715Z,79.24
2023-02-11T02:03:11.356Z,79.52
2023-02-11T02:06:04.036Z,78.43
2023-02-11T02:08:57.239Z,79.14
2023-02-11T02:11:23.531Z,78.51
2023-02-11T02:13:49.867Z,79.03
2023-02-11T02:16:19.580Z,78.96
2023-02-11T02:19:23.059Z,78.95
2023-02-11T02:22:10.645Z,78.77
2023-02-11T02:25:12.798Z,79.15
2023-02-11T02:27:47.917Z,79.12
2023-02-11T02:30:42.264Z,79.11
2023-02-11T02:33:35.036Z,78.94
2023-02-11T02:36:11.145Z,79.02
2023-02-11T02:38:40.789Z,79.30
2023-02-11T02:41:08.813Z,79.32
2023-02-11T02:43:37.622Z,79.36
2023-02-11T02:46:18.030Z,79.21
2023-02-11T02:48:45.334Z,79.00
2023-02-11T02:51:34.944Z,79.47
2023-02-11T02:54:04.284Z,79.61
2023-02-11T02:57:07.711Z,79.26
2023-02-11T02:59:58.529Z,79.41
2023-02-11T03:02:33.455Z,79.72
2023-02-11T03:05:16.681Z,79.85
2023-02-11T03:08:14.904Z,79.76
2023-02-11T03:10:47.983Z,79.40
2023-02-11T03:13:18.696Z,79.93
2023-02-11T03:15:51.033Z,79.46
2023-02-11T03:18:20.791Z,79.71
2023-02-11T03:20:50.444Z,80.04
2023-02-11T03:23:23.672Z,79.68
2023-02-11T03:26:05.365Z,79.78
2023-02-11T03:28:51.249Z,80.12
2023-02-11T03:31:33.980Z,80.03
2023-02-11T03:34:32.481Z,80.15
2023-02-11T03:37:13.690Z,80.24
2023-02-11T03:39:47.495Z,80.19
2023-02-11T03:42:15.829Z,80.13
2023-02-11T03:44:49.676Z,80.38
2023-02-11T03:47:20.938Z,80.06
2023-02-11T03:49:51.687Z,80.38
2023-02-11T03:52:21.810Z,80.25
2023-02-11T03:54:53.173Z,80.45
2023-02-11T03:57:19.478Z,80.22
2023-02-11T03:59:53.048Z,80.31
2023-02-11T04:02:19.550Z,80.66
2023-02-11T04:04:46.899Z,80.60
2023-02-11T04:07:13.303Z,80.69
2023-02-11T04:09:39.769Z,81.05
2023-02-11T04:12:06.444Z,80.74
2023-02-11T04:14:32.787Z,80.49
2023-02-11T04:16:59.095Z,80.68
2023-02-11T04:19:25.374Z,80.77
2023-02-11T04:21:51.719Z,80.57
2023-02-11T04:24:18.009Z,80.83
2023-02-11T04:26:44.295Z,80.80
2023-02-11T04:29:10.596Z,80.69
2023-02-11T04:31:36.964Z,80.79
2023-02-11T04:34:03.291Z,80.53
2023-02-11T04:36:29.711Z,80.88
2023-02-11T04:38:55.995Z,81.19
2023-02-11T04:41:22.350Z,81.39
2023-02-11T04:43:48.689Z,81.69
2023-02-11T04:46:15.038Z,81.56
2023-02-11T04:48:41.438Z,81.73
2023-02-11T04:51:07.743Z,81.95
2023-02-11T04:53:34.091Z,82.05
2023-02-11T04:56:00.438Z,82.16
2023-02-11T04:58:26.767Z,82.60
2023-02-11T05:00:53.281Z,82.98
2023-02-11T05:03:19.666Z,83.10
2023-02-11T05:05:45.971Z,83.77
2023-02-11T05:08:13.046Z,83.35
2023-02-11T05:10:39.346Z,83.83
2023-02-11T05:13:05.835Z,84.01
2023-02-11T05:15:32.251Z,83.86
2023-02-11T05:17:58.557Z,83.98
2023-02-11T05:20:24.927Z,84.54
2023-02-11T05:22:51.209Z,84.19
2023-02-11T05:25:17.632Z,84.05
2023-02-11T05:27:43.953Z,84.47
2023-02-11T05:30:11.320Z,84.34
2023-02-11T05:32:37.655Z,84.53
2023-02-11T05:35:04.211Z,84.75
2023-02-11T05:37:30.666Z,84.47
2023-02-11T05:39:57.016Z,84.82
2023-02-11T05:42:23.325Z,85.03
2023-02-11T05:44:50.674Z,85.32
2023-02-11T05:47:16.990Z,84.78
2023-02-11T05:49:43.300Z,84.92
2023-02-11T05:52:09.570Z,84.84
2023-02-11T05:54:35.889Z,85.04
2023-02-11T05:57:02.179Z,84.58
2023-02-11T05:59:28.487Z,84.94
2023-02-11T06:01:54.811Z,85.11
2023-02-11T06:04:21.130Z,85.41
2023-02-11T06:06:47.439Z,85.64
2023-02-11T06:09:13.760Z,85.69
2023-02-11T06:11:40.121Z,85.86
2023-02-11T06:14:06.485Z,85.48
2023-02-11T06:16:32.780Z,85.41
2023-02-11T06:18:59.111Z,85.80
2023-02-11T06:21:36.349Z,85.97
2023-02-11T06:24:06.844Z,86.16
2023-02-11T06:26:33.133Z,86.27
2023-02-11T06:29:00.829Z,86.17
2023-02-11T06:31:28.331Z,86.23
2023-02-11T06:33:54.735Z,86.71
2023-02-11T06:36:22.300Z,86.75
2023-02-11T06:38:49.398Z,86.63
2023-02-11T06:41:17.965Z,86.57
2023-02-11T06:43:44.258Z,86.91
2023-02-11T06:46:10.654Z,87.12
2023-02-11T06:48:37.312Z,87.58
2023-02-11T06:51:05.433Z,88.06
2023-02-11T06:53:34.428Z,87.65
2023-02-11T06:56:05.469Z,87.97
2023-02-11T06:58:32.532Z,88.10
2023-02-11T07:00:59.007Z,87.83
2023-02-11T07:03:26.255Z,88.12
2023-02-11T07:05:52.925Z,88.15
2023-02-11T07:08:19.325Z,88.11
2023-02-11T07:10:45.589Z,87.83
2023-02-11T07:13:11.880Z,88.23
2023-02-11T07:15:38.152Z,88.26
2023-02-11T07:18:04.516Z,88.60
2023-02-11T07:20:30.805Z,88.01
2023-02-11T07:22:57.124Z,87.98
2023-02-11T07:25:23.405Z,88.16
2023-02-11T07:27:49.698Z,87.97
2023-02-11T07:30:16.023Z,88.57
2023-02-11T07:32:42.358Z,88.60
2023-02-11T07:35:08.668Z,88.70
2023-02-11T07:37:35.489Z,87.66
2023-02-11T07:40:01.919Z,87.80
2023-02-11T07:42:28.213Z,88.05
2023-02-11T07:44:54.500Z,88.34
2023-02-11T07:47:20.820Z,88.17
2023-02-11T07:49:47.132Z,87.48
2023-02-11T07:52:13.407Z,87.87
2023-02-11T07:54:39.850Z,87.37
2023-02-11T07:57:06.188Z,87.43
2023-02-11T07:59:32.522Z,87.88
2023-02-11T08:01:58.853Z,87.69
2023-02-11T08:04:25.198Z,87.17
2023-02-11T08:06:51.563Z,87.81
2023-02-11T08:09:18.387Z,87.60
2023-02-11T08:11:44.935Z,87.34
2023-02-11T08:14:11.815Z,87.66
2023-02-11T08:16:38.547Z,87.38
2023-02-11T08:19:16.123Z,87.40
2023-02-11T08:21:43.447Z,87.57
2023-02-11T08:24:10.234Z,87.51
2023-02-11T08:26:37.383Z,87.43
2023-02-11T08:29:09.057Z,87.85
2023-02-11T08:31:38.194Z,87.94
2023-02-11T08:34:04.830Z,88.48
2023-02-11T08:36:35.825Z,88.47
2023-02-11T08:39:18.020Z,88.37
2023-02-11T08:41:46.760Z,87.99
2023-02-11T08:44:13.183Z,87.76
2023-02-11T08:46:39.486Z,88.33
2023-02-11T08:49:05.808Z,88.65
2023-02-11T08:51:32.364Z,88.18
2023-02-11T08:53:59.586Z,88.47
2023-02-11T08:56:26.482Z,88.55
2023-02-11T08:58:53.813Z,88.60
2023-02-11T09:01:27.781Z,88.00
2023-02-11T09:03:54.425Z,88.40
2023-02-11T09:06:21.403Z,87.91
2023-02-11T09:08:50.775Z,88.78
2023-02-11T09:11:19.573Z,88.24
2023-02-11T09:13:46.424Z,88.04
2023-02-11T09:16:35.858Z,88.22
2023-02-11T09:19:04.189Z,87.99
2023-02-11T09:21:30.699Z,87.89
2023-02-11T09:23:57.311Z,88.05
2023-02-11T09:26:29.794Z,87.71
2023-02-11T09:28:56.804Z,87.72
2023-02-11T09:31:25.824Z,87.78
2023-02-11T09:33:55.178Z,88.05
2023-02-11T09:36:25.068Z,88.11
2023-02-11T09:38:52.167Z,88.81
2023-02-11T09:41:24.592Z,88.61
2023-02-11T09:43:54.432Z,88.33
2023-02-11T09:46:21.727Z,88.32
2023-02-11T09:48:49.116Z,88.49
2023-02-11T09:51:32.157Z,89.25
2023-02-11T09:54:07.771Z,89.54
2023-02-11T09:56:34.074Z,89.75
2023-02-11T09:59:00.409Z,89.79
2023-02-11T10:01:38.570Z,90.08
2023-02-11T10:04:37.309Z,90.51
2023-02-11T10:07:15.436Z,89.87
2023-02-11T10:10:20.074Z,90.39
2023-02-11T10:13:01.467Z,90.05
2023-02-11T10:15:50.995Z,89.90
2023-02-11T10:18:56.431Z,89.69
2023-02-11T10:21:50.553Z,89.93
2023-02-11T10:24:17.521Z,89.89
2023-02-11T10:26:45.101Z,89.93
2023-02-11T10:29:24.846Z,90.04
2023-02-11T10:31:51.813Z,90.24
2023-02-11T10:34:18.834Z,90.21
2023-02-11T10:36:47.228Z,90.42
2023-02-11T10:39:17.917Z,90.51
2023-02-11T10:41:47.865Z,90.33
2023-02-11T10:44:31.675Z,90.47
2023-02-11T10:47:04.187Z,91.06
2023-02-11T10:49:48.332Z,90.55
2023-02-11T10:52:17.351Z,90.98
2023-02-11T10:54:58.905Z,90.49
2023-02-11T10:57:36.985Z,91.28
2023-02-11T11:00:20.022Z,90.86
2023-02-11T11:02:54.266Z,91.54
2023-02-11T11:05:28.523Z,91.11
2023-02-11T11:08:08.831Z,90.68
2023-02-11T11:10:41.284Z,91.64
2023-02-11T11:13:24.396Z,91.13
2023-02-11T11:16:12.594Z,91.42
2023-02-11T11:18:45.701Z,91.71
2023-02-11T11:21:19.369Z,91.56
2023-02-11T11:24:04.348Z,91.78
2023-02-11T11:26:54.746Z,92.07
2023-02-11T11:29:26.657Z,91.91
2023-02-11T11:32:03.419Z,92.38
2023-02-11T11:34:36.743Z,92.14
2023-02-11T11:37:10.258Z,92.15
2023-02-11T11:39:36.803Z,91.98
2023-02-11T11:42:24.560Z,91.74
2023-02-11T11:45:02.916Z,91.57
2023-02-11T11:47:39.250Z,91.54
2023-02-11T11:50:21.275Z,91.86
2023-02-11T11:52:54.241Z,91.26
2023-02-11T11:55:24.756Z,91.86
2023-02-11T11:57:51.147Z,90.99
2023-02-11T12:00:26.520Z,91.15
2023-02-11T12:03:02.019Z,91.60
2023-02-11T12:05:42.980Z,90.82
2023-02-11T12:08:40.232Z,91.05
2023-02-11T12:11:23.393Z,91.39
2023-02-11T12:14:16.758Z,91.09
2023-02-11T12:17:01.263Z,90.65
2023-02-11T12:19:55.150Z,90.92
2023-02-11T12:22:58.716Z,91.00
2023-02-11T12:25:47.081Z,91.12
2023-02-11T12:28:22.332Z,90.68
2023-02-11T12:31:03.858Z,91.06
2023-02-11T12:33:39.148Z,90.93
2023-02-11T12:36:13.660Z,90.48
2023-02-11T12:38:54.972Z,90.73
2023-02-11T12:41:44.150Z,90.46
2023-02-11T12:44:27.067Z,90.48
2023-02-11T12:47:23.002Z,90.78
2023-02-11T12:49:52.349Z,91.03
2023-02-11T12:53:03.247Z,91.08
2023-02-11T12:55:35.524Z,91.00
2023-02-11T12:58:02.032Z,91.08
2023-02-11T13:00:55.244Z,91.38
2023-02-11T13:03:28.448Z,91.80
2023-02-11T13:06:09.825Z,91.59
2023-02-11T13:08:44.222Z,91.42
2023-02-11T13:11:24.319Z,91.17
2023-02-11T13:14:35.171Z,91.75
2023-02-11T13:17:09.643Z,91.13
2023-02-11T13:19:43.702Z,91.14
2023-02-11T13:22:31.133Z,91.18
2023-02-11T13:25:25.348Z,91.18
2023-02-11T13:28:07.104Z,91.07
2023-02-11T13:30:35.621Z,90.98
2023-02-11T13:33:30.634Z,90.69
2023-02-11T13:35:56.919Z,91.01
2023-02-11T13:38:26.577Z,91.19
2023-02-11T13:41:04.959Z,91.66
2023-02-11T13:43:33.593Z,91.53
2023-02-11T13:46:05.756Z,91.16
2023-02-11T13:48:37.888Z,91.84
2023-02-11T13:51:08.869Z,92.10
2023-02-11T13:53:51.476Z,92.54
2023-02-11T13:56:35.593Z,92.35
2023-02-11T13:59:06.077Z,92.30
2023-02-11T14:01:48.723Z,92.94
2023-02-11T14:04:20.618Z,92.12
2023-02-11T14:07:25.186Z,92.46
2023-02-11T14:09:51.513Z,92.44
2023-02-11T14:12:31.665Z,92.69
2023-02-11T14:15:03.357Z,92.83
2023-02-11T14:17:33.233Z,92.62
2023-02-11T14:20:01.941Z,92.49
2023-02-11T14:22:40.540Z,92.27
2023-02-11T14:25:20.091Z,92.75
2023-02-11T14:28:11.452Z,93.11
2023-02-11T14:30:56.577Z,92.85
2023-02-11T14:33:39.608Z,93.00
2023-02-11T14:36:39.663Z,93.24
2023-02-11T14:39:37.220Z,92.61
2023-02-11T14:42:03.884Z,92.69
2023-02-11T14:44:32.853Z,92.60
2023-02-11T14:46:59.697Z,92.74
2023-02-11T14:49:35.416Z,92.21
2023-02-11T14:52:27.389Z,92.64
2023-02-11T14:55:17.886Z,92.43
2023-02-11T14:57:44.301Z,92.64
2023-02-11T15:00:21.749Z,92.72
2023-02-11T15:02:48.532Z,93.11
2023-02-11T15:05:26.390Z,92.40
2023-02-11T15:07:55.922Z,92.90
2023-02-11T15:10:37.958Z,92.92
2023-02-11T15:13:05.034Z,92.58
2023-02-11T15:15:32.751Z,92.86
2023-02-11T15:18:02.226Z,92.78
2023-02-11T15:20:31.238Z,93.24
2023-02-11T15:23:01.139Z,92.76
2023-02-11T15:25:28.130Z,93.10
2023-02-11T15:27:57.148Z,93.27
2023-02-11T15:30:23.489Z,93.40
2023-02-11T15:32:52.210Z,93.07
2023-02-11T15:35:18.751Z,92.94
2023-02-11T15:37:45.514Z,93.15
2023-02-11T15:40:16.758Z,92.87
2023-02-11T15:42:58.659Z,93.45
2023-02-11T15:45:33.082Z,93.50
2023-02-11T15:48:18.957Z,93.44
2023-02-11T15:50:57.565Z,92.84
2023-02-11T15:53:27.086Z,93.50
2023-02-11T15:56:14.876Z,92.67
2023-02-11T15:58:44.213Z,92.86
2023-02-11T16:01:11.865Z,93.08
2023-02-11T16:03:38.890Z,93.08
2023-02-11T16:06:20.076Z,92.83
2023-02-11T16:09:06.374Z,93.35
2023-02-11T16:11:35.935Z,93.35
2023-02-11T16:14:20.111Z,93.32
2023-02-11T16:16:49.015Z,93.30
2023-02-11T16:19:19.238Z,93.72
2023-02-11T16:21:46.222Z,93.84
2023-02-11T16:24:20.662Z,93.49
2023-02-11T16:26:50.261Z,93.79
2023-02-11T16:29:19.831Z,94.02
2023-02-11T16:31:47.895Z,94.00
2023-02-11T16:34:17.468Z,94.12
2023-02-11T16:36:44.504Z,93.86
2023-02-11T16:39:11.565Z,93.88
2023-02-11T16:41:37.891Z,93.57
2023-02-11T16:44:04.538Z,93.27
2023-02-11T16:46:32.193Z,93.50
2023-02-11T16:49:07.654Z,93.53
2023-02-11T16:51:34.078Z,93.78
2023-02-11T16:54:00.389Z,93.26
2023-02-11T16:56:26.669Z,93.65
2023-02-11T16:58:52.983Z,93.65
2023-02-11T17:01:19.414Z,93.04
2023-02-11T17:03:45.784Z,92.97
2023-02-11T17:06:13.345Z,92.93
2023-02-11T17:08:42.996Z,92.90
2023-02-11T17:11:09.275Z,93.18
2023-02-11T17:13:35.658Z,92.79
2023-02-11T17:16:02.223Z,92.98
2023-02-11T17:18:28.632Z,93.07
2023-02-11T17:20:54.956Z,93.28
2023-02-11T17:23:21.303Z,93.19
2023-02-11T17:25:54.990Z,93.46
2023-02-11T17:28:21.317Z,93.54
2023-02-11T17:30:47.660Z,93.27
2023-02-11T17:33:13.970Z,93.33
2023-02-11T17:35:40.329Z,93.15
2023-02-11T17:38:06.632Z,93.08
2023-02-11T17:40:32.951Z,93.17
2023-02-11T17:42:59.224Z,93.45
2023-02-11T17:45:25.607Z,93.45
2023-02-11T17:47:54.593Z,93.18
2023-02-11T17:50:21.061Z,92.92
2023-02-11T17:52:47.382Z,93.78
2023-02-11T17:55:13.841Z,93.29
2023-02-11T17:57:40.185Z,93.22
2023-02-11T18:00:08.474Z,92.93
2023-02-11T18:02:34.802Z,92.92
2023-02-11T18:05:01.220Z,93.01
2023-02-11T18:07:27.671Z,92.93
2023-02-11T18:09:53.989Z,92.87
2023-02-11T18:12:20.315Z,92.86
2023-02-11T18:14:46.623Z,92.84
2023-02-11T18:17:12.957Z,92.60
2023-02-11T18:19:39.273Z,92.67
2023-02-11T18:22:05.645Z,93.46
2023-02-11T18:24:31.990Z,92.99
2023-02-11T18:26:58.373Z,93.07
2023-02-11T18:29:24.947Z,92.62
2023-02-11T18:31:54.654Z,92.84
2023-02-11T18:34:20.990Z,93.05
2023-02-11T18:36:47.311Z,92.44
2023-02-11T18:39:13.594Z,92.63
2023-02-11T18:41:40.087Z,92.77
2023-02-11T18:44:06.757Z,93.00
2023-02-11T18:46:33.722Z,93.10
2023-02-11T18:49:00.097Z,92.75
2023-02-11T18:51:26.541Z,92.92
2023-02-11T18:53:52.828Z,92.38
2023-02-11T18:56:21.923Z,92.71
2023-02-11T18:58:49.102Z,92.40
2023-02-11T19:01:21.251Z,91.90
2023-02-11T19:03:47.616Z,92.27
2023-02-11T19:06:19.009Z,91.72
2023-02-11T19:08:46.339Z,92.14
2023-02-11T19:11:13.318Z,92.12
2023-02-11T19:13:42.495Z,91.72
2023-02-11T19:16:11.353Z,91.81
2023-02-11T19:18:38.022Z,91.62
2023-02-11T19:21:09.734Z,91.90
2023-02-11T19:23:36.656Z,91.80
2023-02-11T19:26:03.396Z,92.03
2023-02-11T19:28:31.507Z,91.46
2023-02-11T19:30:58.017Z,91.47
2023-02-11T19:33:24.432Z,91.79
2023-02-11T19:35:51.071Z,92.13
2023-02-11T19:38:17.607Z,92.04
2023-02-11T19:40:43.923Z,92.36
2023-02-11T19:43:10.200Z,92.22
2023-02-11T19:45:39.554Z,92.36
2023-02-11T19:48:05.891Z,92.44
2023-02-11T19:50:32.182Z,92.39
2023-02-11T19:52:58.518Z,92.21
2023-02-11T19:55:26.042Z,92.48
2023-02-11T19:57:52.358Z,92.19
2023-02-11T20:00:19.103Z,92.37
2023-02-11T20:02:45.411Z,92.16
2023-02-11T20:05:11.725Z,92.68
2023-02-11T20:07:38.109Z,92.28
2023-02-11T20:10:05.236Z,92.16
2023-02-11T20:12:31.563Z,92.10
2023-02-11T20:14:58.116Z,92.15
2023-02-11T20:17:27.644Z,91.94
2023-02-11T20:19:53.920Z,91.93
2023-02-11T20:22:20.256Z,92.32
2023-02-11T20:24:49.316Z,92.30
2023-02-11T20:27:17.304Z,92.00
2023-02-11T20:29:44.715Z,92.36
2023-02-11T20:32:11.666Z,92.19
2023-02-11T20:34:38.038Z,92.27
2023-02-11T20:37:04.411Z,91.97
2023-02-11T20:39:30.723Z,92.30
2023-02-11T20:41:57.090Z,92.01
2023-02-11T20:44:24.082Z,91.84
2023-02-11T20:46:51.717Z,92.31
2023-02-11T20:49:24.321Z,92.12
2023-02-11T20:51:50.929Z,92.10
2023-02-11T20:54:19.655Z,92.21
2023-02-11T20:56:48.248Z,92.20
2023-02-11T20:59:15.378Z,92.33
2023-02-11T21:01:44.835Z,92.26
2023-02-11T21:04:17.640Z,92.11
2023-02-11T21:06:46.509Z,92.46
2023-02-11T21:09:15.631Z,92.37
2023-02-11T21:11:42.761Z,92.45
2023-02-11T21:14:09.700Z,92.67
2023-02-11T21:16:35.989Z,92.22
2023-02-11T21:19:02.385Z,92.29
2023-02-11T21:21:29.315Z,91.88
2023-02-11T21:23:55.825Z,91.97
2023-02-11T21:26:22.887Z,92.07
2023-02-11T21:28:49.238Z,91.67
2023-02-11T21:31:25.128Z,92.04
2023-02-11T21:33:52.373Z,92.10
2023-02-11T21:36:18.938Z,91.92
2023-02-11T21:38:45.246Z,91.48
2023-02-11T21:41:12.146Z,91.25
2023-02-11T21:43:38.628Z,91.08
2023-02-11T21:46:13.466Z,91.24
2023-02-11T21:48:40.203Z,91.54
2023-02-11T21:51:09.184Z,91.05
2023-02-11T21:53:35.733Z,91.46
2023-02-11T21:56:07.833Z,91.36
2023-02-11T21:58:35.206Z,91.31
2023-02-11T22:01:01.749Z,91.57
2023-02-11T22:03:28.132Z,91.66
2023-02-11T22:05:54.689Z,91.78
2023-02-11T22:08:21.205Z,91.56
2023-02-11T22:10:47.533Z,91.97
2023-02-11T22:13:13.840Z,92.05
2023-02-11T22:15:40.180Z,92.19
2023-02-11T22:18:06.525Z,91.81
2023-02-11T22:20:32.891Z,91.72
2023-02-11T22:22:59.215Z,90.79
2023-02-11T22:25:25.538Z,91.43
2023-02-11T22:27:51.853Z,91.25
2023-02-11T22:30:18.282Z,91.02
2023-02-11T22:32:44.620Z,91.09
2023-02-11T22:35:10.950Z,91.29
2023-02-11T22:37:37.311Z,91.16
2023-02-11T22:40:03.817Z,91.30
2023-02-11T22:42:30.149Z,91.46
2023-02-11T22:44:56.482Z,91.47
2023-02-11T22:47:22.818Z,91.45
2023-02-11T22:49:49.140Z,91.18
2023-02-11T22:52:15.432Z,90.93
2023-02-11T22:54:41.757Z,90.85
2023-02-11T22:57:08.071Z,91.46
2023-02-11T22:59:37.475Z,91.23
2023-02-11T23:02:03.931Z,91.44
2023-02-11T23:04:30.508Z,90.88
2023-02-11T23:06:56.847Z,91.10
2023-02-11T23:09:26.240Z,90.86
2023-02-11T23:11:52.591Z,90.82
2023-02-11T23:14:18.950Z,91.04
2023-02-11T23:16:45.281Z,91.32
2023-02-11T23:19:11.682Z,90.94
2023-02-11T23:21:39.011Z,91.08
2023-02-11T23:24:07.979Z,91.08
2023-02-11T23:26:35.199Z,91.09
2023-02-11T23:29:01.525Z,90.88
2023-02-11T23:31:33.503Z,90.56
2023-02-11T23:34:01.012Z,91.02
2023-02-11T23:36:27.930Z,91.42
2023-02-11T23:38:54.329Z,90.83
2023-02-11T23:41:21.489Z,90.80
2023-02-11T23:43:56.150Z,91.46
2023-02-11T23:46:24.661Z,90.52
2023-02-11T23:48:51.979Z,91.01
2023-02-11T23:51:19.028Z,90.85
2023-02-11T23:56:17.596Z,91.03
2023-02-11T23:58:43.947Z,91.14
